Kootstertille, Netherlands
Current Conditions -  °F | °C
As of 2:25 AM on Saturday 25 Oct 2014 (Local Time) from EHLW Reporting Station
Drizzle Drizzle  
Wind Chill: 54°   Ceiling: 500
Heat Index: 54°   Visibility: 4mi
Dew Point: 54°   Wind: 14mph
Humidity: 100%   Direction: 200°SSW
Pressure: 29.91"   Gusts: NA
Location:  53.21°N, 6.09°E
Report Text: EHLW 250025Z AUTO 20012KT 6000 -DZ BKN005 OVC006 12/12 Q1013 REDZ YLO
Loading
Personal Weather Stations






























Interactive Weather Map
Tropical Storm Tracking
New forecast layout! Learn more

10-Day Weather Forecast

Advertisements
Track Severe Weather on mobile